Flight Track Log - Related Links

Times and Time Zones

All times are in EDT time to prevent confusion due to time zone crossing. See the N682RW flight status page for this flight to view local times or setup timezone preferences in your user account.

Time Position Orientation Groundspeed Altitude Reporting Facility
EDT Latitude Longitude Course Direction KTS MPH feet Rate Location/Type
Sun 18:33:32 42.1953 -83.3581 186° South 214 246 1,200  Level Cleveland Center
Sun 18:34:02 42.1639 -83.3622 186° South 228 262 2,700 3,033 Climbing Cleveland Center
Sun 18:35:03 42.0933 -83.3561 176° South 272 313 5,800 3,268 Climbing Cleveland Center
Sun 18:36:05 42.0275 -83.3086 152° Southeast 284 327 9,400 1,787 Climbing Cleveland Center
Sun 18:37:24 42.0394 -83.1553 84° East 404 465 10,000 691 Climbing Cleveland Center
Sun 18:38:24 42.0756 -83.0281 69° East 372 428 11,000 2,000 Climbing Cleveland Center
Sun 18:39:24 42.1097 -82.8978 70° East 365 420 14,000 2,850 Climbing Cleveland Center
Sun 18:40:24 42.1458 -82.7564 71° East 376 433 16,700 2,400 Climbing Cleveland Center
Sun 18:41:24 42.1817 -82.6147 71° East 392 451 18,800 2,000 Climbing Cleveland Center
Sun 18:42:24 42.2175 -82.4672 72° East 402 463 20,700 1,100 Climbing Cleveland Center
Sun 18:43:24 42.2139 -82.3072 92° East 409 471 21,000 150 Climbing Cleveland Center
Sun 18:44:24 42.2014 -82.1472 96° East 409 471 21,000 550 Level Cleveland Center
Sun 18:45:24 42.1928 -82.0069 95° East 422 486 22,100 1,500 Climbing Cleveland Center
Sun 18:46:24 42.1822 -81.8469 95° East 427 491 24,000 1,750 Climbing Cleveland Center
Sun 18:47:24 42.1714 -81.6786 95° East 438 504 25,600 2,000 Climbing Cleveland Center
Sun 18:48:24 42.1583 -81.5131 96° East 443 510 28,000 2,400 Climbing Cleveland Center
Sun 18:49:24 42.1450 -81.3392 96° East 436 502 30,400 1,550 Climbing Cleveland Center
Sun 18:50:24 42.1208 -81.1878 102° East 421 484 31,100 600 Climbing Cleveland Center
Sun 18:51:24 42.0925 -81.0281 103° East 431 496 31,600 550 Climbing Cleveland Center
Sun 18:52:24 42.0617 -80.8600 104° East 446 513 32,200 650 Climbing Cleveland Center
Sun 18:53:24 42.0308 -80.6867 103° East 468 539 32,900 950 Climbing Cleveland Center
Sun 18:54:24 41.9994 -80.5133 104° East 475 547 34,100 1,050 Climbing Cleveland Center
Sun 18:55:24 41.9703 -80.3486 103° East 461 531 35,000 450 Climbing Cleveland Center
Sun 18:56:24 41.9447 -80.2006 103° East 461 531 35,000  Level Cleveland Center
Sun 18:57:24 41.9128 -80.0364 105° East 456 525 35,000  Level Cleveland Center
Sun 18:58:24 41.8806 -79.8664 104° East 456 525 35,000  Level Cleveland Center
Sun 18:59:24 41.8525 -79.7022 103° East 451 519 35,000  Level Cleveland Center
Sun 19:00:24 41.8175 -79.5217 105° East 451 519 35,000  Level Cleveland Center
Sun 19:01:24 41.7867 -79.3578 104° East 451 519 35,000 -300 Level Cleveland Center
Sun 19:02:24 41.7600 -79.2108 104° East 451 519 34,400 -800 Descending Cleveland Center
Sun 19:03:24 41.7267 -79.0444 105° East 451 519 33,400 -1,050 Descending Cleveland Center
Sun 19:04:24 41.6906 -78.8564 104° East 459 528 32,300 -766 Descending Cleveland Center
Sun 19:06:32 41.6200 -78.4994 105° East 474 545 31,000 -417 Descending New York Center
Sun 19:07:31 41.5872 -78.3292 104° East 474 545 31,000  Level New York Center
Sun 19:08:31 41.5519 -78.1617 106° East 469 540 31,000  Level New York Center
Sun 19:09:30 41.5183 -77.9944 105° East 469 540 31,000  Level New York Center
Sun 19:10:31 41.4911 -77.8225 102° East 469 540 31,000  Level New York Center
Sun 19:11:32 41.4675 -77.6567 101° East 459 528 31,000  Level New York Center
Sun 19:12:32 41.4483 -77.5217 101° East 459 528 31,000 -864 Level New York Center
Sun 19:13:30 41.4214 -77.3336 101° East 445 512 29,300 -1,627 Descending New York Center
Sun 19:14:30 41.4000 -77.1878 101° East 420 483 27,800 -1,600 Descending New York Center
Sun 19:15:30 41.3786 -77.0444 101° East 401 461 26,100 -1,388 Descending New York Center
Sun 19:16:31 41.3586 -76.9100 101° East 385 443 25,000 -545 Descending New York Center
Sun 19:17:31 41.3344 -76.7725 103° East 375 432 25,000 -99 Level New York Center
Sun 19:18:32 41.2994 -76.6367 109° East 375 432 24,800 -756 Descending New York Center
Sun 19:19:30 41.2567 -76.4867 111° Southeast 402 463 23,500 -1,513 Descending New York Center
Sun 19:20:31 41.2158 -76.3397 110° East 419 482 21,800 -1,623 Descending New York Center
Sun 19:21:32 41.1786 -76.1961 109° East 419 482 20,200 -1,537 Descending New York Center
Sun 19:22:32 41.1469 -76.0694 108° East 413 475 18,700 -984 Descending New York Center
Sun 19:23:34 41.1078 -75.9206 109° East 401 461 18,200 -706 Descending New York Center
Sun 19:24:31 41.0697 -75.7856 110° East 396 456 17,300 -1,692 Descending New York Center
Sun 19:25:31 41.0336 -75.6536 110° East 391 450 14,900 -2,607 Descending New York Center
Sun 19:26:33 40.9953 -75.5217 111° Southeast 391 450 12,000 -2,000 Descending New York Center
Sun 19:27:31 40.9622 -75.4067 111° Southeast 373 429 10,900 -958 Descending New York Center
Sun 19:28:32 40.9311 -75.2947 110° East 347 399 10,100 -1,180 Descending New York Center
Sun 19:29:33 40.9000 -75.1800 110° East 319 367 8,500 -1,322 Descending New York Center
Sun 19:30:30 40.8706 -75.0767 111° Southeast 300 345 7,500 -769 Descending New York Center
Sun 19:31:30 40.8408 -74.9758 111° Southeast 295 339 7,000 -250 Descending New York Center
Sun 19:32:30 40.8042 -74.8969 122° Southeast 290 334 7,000  Level New York Center
Sun 19:33:31 40.7464 -74.8222 136° Southeast 271 312 7,000 -99 Level New York Center
Sun 19:34:31 40.7089 -74.7569 127° Southeast 255 293 6,800 -347 Descending New York Center
Sun 19:35:32 40.7164 -74.6617 84° East 227 261 6,300 -397 Descending New York Center
Sun 19:36:32 40.7292 -74.5831 78° East 232 267 6,000 -153 Descending New York Center
Sun 19:37:30 40.7869 -74.5394 30° Northeast 215 247 6,000  Level New York Center
Sun 19:38:30 40.8414 -74.5261 10° North 216 249 6,000 -176 Level New York Center
Sun 19:39:46 40.9167 -74.5000 15° North 230 265 5,600 -441 Descending New York TRACON
Sun 19:40:46 40.9667 -74.4333 45° Northeast 230 265 5,000 -300 Descending New York TRACON
Sun 19:41:46 41.0000 -74.3500 62° Northeast 237 273 5,000 -100 Level New York TRACON
Sun 19:42:46 41.0000 -74.2667 90° East 241 277 4,800 -500 Descending New York TRACON
Sun 19:43:46 41.0000 -74.1833 90° East 247 284 4,000 -400 Descending New York TRACON
Sun 19:44:46 40.9500 -74.1167 135° Southeast 229 264 4,000 -400 Level New York TRACON
Sun 19:45:46 40.9167 -74.0667 131° Southeast 192 221 3,200 -550 Descending New York TRACON
Sun 19:46:46 40.8667 -74.0500 166° South 181 208 2,900 -200 Descending New York TRACON
Sun 19:47:46 40.8333 -74.0833 217° Southwest 172 198 2,800 -500 Descending New York TRACON
Sun 19:48:46 40.7833 -74.1000 194° South 171 197 1,900 -900 Descending New York TRACON
Sun 19:49:46 40.7500 -74.1333 217° Southwest 159 183 1,000 -850 Descending New York TRACON
Sun 19:50:46 40.7000 -74.1500 194° South 146 168 200 -800 Descending New York TRACON
Sun 19:52:00 40.6833 -74.1667 159° South  Level FlightAware Approximate
Sun 19:59:00 40.6925 -74.1687 159° South  Level Estimated
Sun 20:00:00 40.6925 -74.1687 159° South  Level Estimated
Sun 20:01:00 40.6925 -74.1687 159° South  Level Estimated

Login

Don't have an account? Register now (free) for customized features, flight alerts, and more!